Time;durP1;ratioP1;P1;durP2;ratioP2;P2;SDS_P1;SDS_P2;PMS_P1;PMS_P2;Temp;Humidity;BMP_temperature;BMP_pressure;BME280_temperature;BME280_humidity;BME280_pressure;Samples;Min_cycle;Max_cycle;Signal;HPM_P1;HPM_P2
2022/08/17 00:00:18;;;;;;;6.30;3.45;;;;;;;;;;4978437;28;20019;-78
2022/08/17 00:02:56;;;;;;;3.78;3.00;;;;;;;;;;4972748;28;20037;-79
2022/08/17 00:05:22;;;;;;;7.57;3.65;;;;;;;;;;4979279;28;20038;-80
2022/08/17 00:07:48;;;;;;;6.57;3.40;;;;;;;;;;4968725;28;20054;-78
2022/08/17 00:10:15;;;;;;;6.15;3.35;;;;;;;;;;4968943;28;20047;-78
2022/08/17 00:12:42;;;;;;;4.32;3.13;;;;;;;;;;4970591;28;20027;-78
2022/08/17 00:15:09;;;;;;;6.70;4.05;;;;;;;;;;4974358;28;20033;-78
2022/08/17 00:17:36;;;;;;;5.30;3.42;;;;;;;;;;4969836;28;20585;-78
2022/08/17 00:20:03;;;;;;;5.47;3.53;;;;;;;;;;4969777;28;20389;-79
2022/08/17 00:22:29;;;;;;;5.97;3.42;;;;;;;;;;4974801;28;20026;-79
2022/08/17 00:24:55;;;;;;;5.25;3.30;;;;;;;;;;4972525;28;20047;-79
2022/08/17 00:27:21;;;;;;;5.25;3.42;;;;;;;;;;4966305;28;20027;-79
2022/08/17 00:29:47;;;;;;;5.53;3.50;;;;;;;;;;4965530;28;20142;-78
2022/08/17 00:32:13;;;;;;;7.13;3.80;;;;;;;;;;4974308;28;20026;-77
2022/08/17 00:34:40;;;;;;;9.65;3.75;;;;;;;;;;4973853;28;20034;-78
2022/08/17 00:37:06;;;;;;;4.65;3.30;;;;;;;;;;4978003;28;20014;-79
2022/08/17 00:39:33;;;;;;;8.25;3.65;;;;;;;;;;4971496;28;20031;-78
2022/08/17 00:41:59;;;;;;;10.20;4.05;;;;;;;;;;4973658;28;20023;-78
2022/08/17 00:44:25;;;;;;;6.45;3.33;;;;;;;;;;4970030;28;20062;-78
2022/08/17 00:46:52;;;;;;;6.18;3.40;;;;;;;;;;4970133;28;20408;-78
2022/08/17 00:49:22;;;;;;;7.18;3.42;;;;;;;;;;4975164;28;20041;-77
2022/08/17 00:51:48;;;;;;;7.28;3.78;;;;;;;;;;4971284;28;20031;-78
2022/08/17 00:54:29;;;;;;;11.98;4.88;;;;;;;;;;4979498;28;20031;-78
2022/08/17 00:56:59;;;;;;;7.05;3.42;;;;;;;;;;4970452;28;20429;-78
2022/08/17 00:59:41;;;;;;;5.90;3.05;;;;;;;;;;4973490;28;20026;-78
2022/08/17 01:02:08;;;;;;;9.40;3.90;;;;;;;;;;4969627;28;20042;-78
2022/08/17 01:04:35;;;;;;;4.85;3.08;;;;;;;;;;4972595;28;20393;-77
2022/08/17 01:07:03;;;;;;;6.40;3.92;;;;;;;;;;4977119;28;20106;-77
2022/08/17 01:09:30;;;;;;;4.82;3.40;;;;;;;;;;4966747;28;20150;-79
2022/08/17 01:11:56;;;;;;;6.00;3.70;;;;;;;;;;4975474;28;20022;-77
2022/08/17 01:14:23;;;;;;;5.93;3.65;;;;;;;;;;4974504;28;20470;-78
2022/08/17 01:16:51;;;;;;;6.82;3.70;;;;;;;;;;4970783;28;20019;-77
2022/08/17 01:19:19;;;;;;;5.68;3.28;;;;;;;;;;4972182;28;20069;-79
2022/08/17 01:21:47;;;;;;;5.68;2.95;;;;;;;;;;4965090;28;20023;-78
2022/08/17 01:24:14;;;;;;;7.65;4.10;;;;;;;;;;4964718;28;20041;-77
2022/08/17 01:26:41;;;;;;;5.72;3.30;;;;;;;;;;4969020;28;20455;-78
2022/08/17 01:29:07;;;;;;;5.47;3.10;;;;;;;;;;4973961;28;20594;-78
2022/08/17 01:31:38;;;;;;;8.07;4.15;;;;;;;;;;4981287;28;20046;-77
2022/08/17 01:34:07;;;;;;;8.70;3.40;;;;;;;;;;4969974;28;20150;-77
2022/08/17 01:36:33;;;;;;;5.45;3.42;;;;;;;;;;4970518;28;20086;-78
2022/08/17 01:39:00;;;;;;;5.22;3.70;;;;;;;;;;4971324;28;20020;-78
2022/08/17 01:41:27;;;;;;;7.03;3.33;;;;;;;;;;4970766;28;20077;-78
2022/08/17 01:44:03;;;;;;;5.35;3.35;;;;;;;;;;4971613;28;20086;-78
2022/08/17 01:46:32;;;;;;;6.47;4.20;;;;;;;;;;4972286;28;20027;-78
2022/08/17 01:48:58;;;;;;;6.32;3.83;;;;;;;;;;4975991;28;20046;-77
2022/08/17 01:51:31;;;;;;;5.35;3.00;;;;;;;;;;4972203;28;20045;-77
2022/08/17 01:53:58;;;;;;;6.15;3.45;;;;;;;;;;4982006;28;20032;-77
2022/08/17 01:56:25;;;;;;;5.55;3.92;;;;;;;;;;4963091;28;20035;-78
2022/08/17 01:58:52;;;;;;;5.80;3.28;;;;;;;;;;4974971;28;20105;-78
2022/08/17 02:01:20;;;;;;;8.30;3.95;;;;;;;;;;4980642;28;20035;-78
2022/08/17 02:03:46;;;;;;;10.82;4.20;;;;;;;;;;4970432;28;20477;-79
2022/08/17 02:06:13;;;;;;;4.50;3.00;;;;;;;;;;4967385;28;20195;-77
2022/08/17 02:08:39;;;;;;;7.22;3.35;;;;;;;;;;4971445;28;20067;-76
2022/08/17 02:11:06;;;;;;;6.82;3.72;;;;;;;;;;4969336;28;20059;-77
2022/08/17 02:13:33;;;;;;;7.53;4.85;;;;;;;;;;4969605;28;20243;-77
2022/08/17 02:16:00;;;;;;;6.15;3.65;;;;;;;;;;4969598;28;20244;-77
2022/08/17 02:18:26;;;;;;;7.15;4.03;;;;;;;;;;4969037;28;20134;-77
2022/08/17 02:20:53;;;;;;;6.20;3.25;;;;;;;;;;4971268;28;20038;-77
2022/08/17 02:23:20;;;;;;;7.63;3.80;;;;;;;;;;4969008;28;20035;-78
2022/08/17 02:25:47;;;;;;;5.30;3.53;;;;;;;;;;4963408;28;20022;-76
2022/08/17 02:28:14;;;;;;;5.22;3.35;;;;;;;;;;4972026;28;20096;-78
2022/08/17 02:30:40;;;;;;;8.05;3.33;;;;;;;;;;4972520;28;20033;-78
2022/08/17 02:33:07;;;;;;;7.50;3.38;;;;;;;;;;4966415;28;20042;-78
2022/08/17 02:35:34;;;;;;;7.57;3.17;;;;;;;;;;4966246;28;20024;-78
2022/08/17 02:38:00;;;;;;;4.60;3.75;;;;;;;;;;4966596;28;20018;-77
2022/08/17 02:40:27;;;;;;;8.35;4.32;;;;;;;;;;4966357;28;20081;-78
2022/08/17 02:42:53;;;;;;;6.07;3.72;;;;;;;;;;4970463;28;20038;-78
2022/08/17 02:45:22;;;;;;;4.80;3.30;;;;;;;;;;4962788;28;20489;-78
2022/08/17 02:47:49;;;;;;;5.72;4.00;;;;;;;;;;4966121;28;20546;-78
2022/08/17 02:50:16;;;;;;;8.40;3.35;;;;;;;;;;4971255;28;20504;-79
2022/08/17 02:52:43;;;;;;;5.75;3.70;;;;;;;;;;4969937;28;20033;-78
2022/08/17 02:55:12;;;;;;;5.32;3.17;;;;;;;;;;4971894;28;20026;-77
2022/08/17 02:57:38;;;;;;;5.72;3.30;;;;;;;;;;4990568;28;20043;-78
2022/08/17 03:00:06;;;;;;;6.65;3.47;;;;;;;;;;4970865;28;20031;-77
2022/08/17 03:02:37;;;;;;;8.32;3.70;;;;;;;;;;4961931;28;20611;-78
2022/08/17 03:05:03;;;;;;;8.48;3.17;;;;;;;;;;4975485;28;20031;-78
2022/08/17 03:07:30;;;;;;;6.68;2.95;;;;;;;;;;4975424;28;20169;-78
2022/08/17 03:09:56;;;;;;;6.25;3.10;;;;;;;;;;4970722;28;20046;-77
2022/08/17 03:12:23;;;;;;;6.60;3.50;;;;;;;;;;4969309;28;20413;-78
2022/08/17 03:14:49;;;;;;;6.43;4.18;;;;;;;;;;4974107;28;20393;-78
2022/08/17 03:17:15;;;;;;;5.00;4.00;;;;;;;;;;4964383;28;20019;-78
2022/08/17 03:19:41;;;;;;;5.03;3.10;;;;;;;;;;4967869;28;20514;-78
2022/08/17 03:22:08;;;;;;;6.57;3.45;;;;;;;;;;4968198;28;20026;-77
2022/08/17 03:24:34;;;;;;;6.72;3.40;;;;;;;;;;4981077;28;20038;-77
2022/08/17 03:27:00;;;;;;;5.85;3.35;;;;;;;;;;4968859;28;20031;-78
2022/08/17 03:29:26;;;;;;;8.80;3.53;;;;;;;;;;4972955;28;20038;-78
2022/08/17 03:31:52;;;;;;;5.97;3.25;;;;;;;;;;4974306;28;20023;-80
2022/08/17 03:34:18;;;;;;;4.93;2.97;;;;;;;;;;4969186;28;20486;-77
2022/08/17 03:36:44;;;;;;;4.63;3.65;;;;;;;;;;4969753;28;20392;-76
2022/08/17 03:39:10;;;;;;;9.32;4.28;;;;;;;;;;4974739;28;20511;-77
2022/08/17 03:41:36;;;;;;;11.65;4.05;;;;;;;;;;4971596;28;20392;-78
2022/08/17 03:44:03;;;;;;;6.40;3.10;;;;;;;;;;4984174;28;20034;-77
2022/08/17 03:57:29;;;;;;;6.88;4.47;;;;;;;;;;4976985;28;20045;-78
2022/08/17 03:59:55;;;;;;;7.88;3.80;;;;;;;;;;4970493;28;20030;-78
2022/08/17 04:02:23;;;;;;;5.82;3.45;;;;;;;;;;4972814;28;20037;-77
2022/08/17 04:04:51;;;;;;;9.15;3.60;;;;;;;;;;4971450;28;20439;-77
2022/08/17 04:07:18;;;;;;;4.97;3.90;;;;;;;;;;4972357;28;20718;-78
2022/08/17 04:09:44;;;;;;;5.88;3.38;;;;;;;;;;4975511;28;20065;-77
2022/08/17 04:12:10;;;;;;;6.80;3.47;;;;;;;;;;4971742;28;20031;-78
2022/08/17 04:14:37;;;;;;;6.30;3.70;;;;;;;;;;4967924;28;20023;-77
2022/08/17 04:17:04;;;;;;;10.27;3.55;;;;;;;;;;4974079;28;20027;-77
2022/08/17 04:19:31;;;;;;;5.10;3.30;;;;;;;;;;4974090;28;20044;-77
2022/08/17 04:21:57;;;;;;;5.28;2.92;;;;;;;;;;4970171;28;20029;-77
2022/08/17 04:24:23;;;;;;;6.30;3.03;;;;;;;;;;4972024;28;20114;-77
2022/08/17 04:26:50;;;;;;;6.75;3.83;;;;;;;;;;4976852;28;20031;-77
2022/08/17 04:29:16;;;;;;;6.72;3.15;;;;;;;;;;4975164;28;20073;-78
2022/08/17 04:31:42;;;;;;;4.82;3.88;;;;;;;;;;4971869;28;20490;-77
2022/08/17 04:34:09;;;;;;;8.80;3.33;;;;;;;;;;4974569;28;20027;-77
2022/08/17 04:36:35;;;;;;;7.53;3.55;;;;;;;;;;4977184;28;20089;-76
2022/08/17 04:39:01;;;;;;;8.40;4.13;;;;;;;;;;4973053;28;20030;-77
2022/08/17 04:44:20;;;;;;;6.07;3.40;;;;;;;;;;4961543;28;20038;-77
2022/08/17 04:46:46;;;;;;;6.00;3.20;;;;;;;;;;4976691;28;20026;-77
2022/08/17 04:49:16;;;;;;;5.50;3.80;;;;;;;;;;4972480;28;20023;-77
2022/08/17 04:51:44;;;;;;;8.88;3.30;;;;;;;;;;4992332;28;20030;-77
2022/08/17 04:54:11;;;;;;;7.57;3.40;;;;;;;;;;4973613;28;20026;-78
2022/08/17 04:56:38;;;;;;;7.85;3.35;;;;;;;;;;4974930;28;20041;-77
2022/08/17 04:59:05;;;;;;;8.30;3.95;;;;;;;;;;4976479;28;20030;-78
2022/08/17 05:01:34;;;;;;;5.72;3.22;;;;;;;;;;4978192;28;20027;-79
2022/08/17 05:04:01;;;;;;;8.23;3.42;;;;;;;;;;4968374;28;20101;-78
2022/08/17 05:06:28;;;;;;;9.15;4.07;;;;;;;;;;4980486;28;20026;-77
2022/08/17 05:08:55;;;;;;;9.55;3.13;;;;;;;;;;4967366;28;20058;-78
2022/08/17 05:11:21;;;;;;;6.63;3.10;;;;;;;;;;4975069;28;20050;-77
2022/08/17 05:13:48;;;;;;;6.35;3.72;;;;;;;;;;4970760;28;20367;-78
2022/08/17 05:16:15;;;;;;;4.43;3.05;;;;;;;;;;4981278;28;20026;-76
2022/08/17 05:18:41;;;;;;;4.97;3.33;;;;;;;;;;4966654;28;20020;-78
2022/08/17 05:21:07;;;;;;;8.02;2.88;;;;;;;;;;4989631;28;20026;-76
2022/08/17 05:23:34;;;;;;;8.60;3.03;;;;;;;;;;4970484;28;20535;-77
2022/08/17 05:26:00;;;;;;;5.25;3.50;;;;;;;;;;4969893;28;20396;-77
2022/08/17 05:28:26;;;;;;;7.20;4.32;;;;;;;;;;4972280;28;20035;-77
2022/08/17 05:30:53;;;;;;;9.30;3.53;;;;;;;;;;4969050;28;20031;-77
2022/08/17 05:33:21;;;;;;;5.90;3.38;;;;;;;;;;4969689;28;20034;-78
2022/08/17 05:35:48;;;;;;;7.50;3.45;;;;;;;;;;4970979;28;20049;-77
2022/08/17 05:38:16;;;;;;;10.45;4.45;;;;;;;;;;4965963;28;20026;-77
2022/08/17 05:40:42;;;;;;;5.68;3.00;;;;;;;;;;4975546;28;20031;-78
2022/08/17 05:43:08;;;;;;;5.70;3.00;;;;;;;;;;4967542;28;20026;-77
2022/08/17 05:45:36;;;;;;;5.93;3.17;;;;;;;;;;4977127;28;20045;-77
2022/08/17 05:48:02;;;;;;;11.05;3.67;;;;;;;;;;4976626;28;20022;-78
2022/08/17 05:50:33;;;;;;;5.05;2.72;;;;;;;;;;4972766;28;20059;-77
2022/08/17 05:52:59;;;;;;;3.95;2.90;;;;;;;;;;4970397;28;20174;-77
2022/08/17 05:55:32;;;;;;;13.02;3.75;;;;;;;;;;4974468;28;20037;-78
2022/08/17 05:58:07;;;;;;;7.05;3.63;;;;;;;;;;4970455;28;20489;-77
2022/08/17 06:00:33;;;;;;;;;;;;;;;;;;4976628;28;20086;-78
2022/08/17 06:03:22;;;;;;;6.03;3.50;;;;;;;;;;4971653;28;19962;-77
2022/08/17 06:05:57;;;;;;;6.10;3.15;;;;;;;;;;4940287;28;20045;-77
2022/08/17 06:08:26;;;;;;;5.85;2.95;;;;;;;;;;4975845;28;20094;-78
2022/08/17 06:11:02;;;;;;;8.20;3.85;;;;;;;;;;4968737;28;20034;-77
2022/08/17 06:13:28;;;;;;;;;;;;;;;;;;4970499;28;20074;-77
2022/08/17 06:16:03;;;;;;;7.40;3.30;;;;;;;;;;4974361;28;19964;-77
2022/08/17 06:18:35;;;;;;;4.55;2.90;;;;;;;;;;4969543;28;20038;-77
2022/08/17 06:21:04;;;;;;;6.78;3.05;;;;;;;;;;4974210;28;20494;-77
2022/08/17 06:23:36;;;;;;;6.72;3.17;;;;;;;;;;4969640;28;20405;-77
2022/08/17 06:26:11;;;;;;;10.02;3.63;;;;;;;;;;4972890;28;20023;-76
2022/08/17 06:28:43;;;;;;;8.40;3.30;;;;;;;;;;4982336;28;20053;-77
2022/08/17 06:31:16;;;;;;;6.80;3.10;;;;;;;;;;4971407;28;20401;-77
2022/08/17 06:33:45;;;;;;;4.97;2.95;;;;;;;;;;4968776;28;20425;-77
2022/08/17 06:36:14;;;;;;;31.70;4.50;;;;;;;;;;4967954;28;20042;-77
2022/08/17 06:38:40;;;;;;;8.65;3.67;;;;;;;;;;4971018;28;20026;-77
2022/08/17 06:41:20;;;;;;;7.85;3.90;;;;;;;;;;4974677;28;20034;-77
2022/08/17 06:44:05;;;;;;;8.15;3.65;;;;;;;;;;4974238;28;20038;-78
2022/08/17 06:46:36;;;;;;;7.38;3.30;;;;;;;;;;4968402;28;20027;-76
2022/08/17 06:49:16;;;;;;;7.45;3.63;;;;;;;;;;4969976;28;20023;-77
2022/08/17 06:51:56;;;;;;;9.40;4.07;;;;;;;;;;4968826;28;20367;-78
2022/08/17 06:54:35;;;;;;;4.30;2.63;;;;;;;;;;4968296;28;20506;-77
2022/08/17 06:57:13;;;;;;;6.88;3.10;;;;;;;;;;4970195;28;20030;-78
2022/08/17 06:59:51;;;;;;;8.02;3.40;;;;;;;;;;4968400;28;20023;-78
2022/08/17 07:02:44;;;;;;;8.27;3.63;;;;;;;;;;4967374;28;20481;-78
2022/08/17 07:05:11;;;;;;;7.07;3.00;;;;;;;;;;4953696;28;20068;-78
2022/08/17 07:10:25;;;;;;;11.65;3.75;;;;;;;;;;4976581;28;20044;-77
2022/08/17 07:12:53;;;;;;;5.18;3.20;;;;;;;;;;4976608;28;20145;-77
2022/08/17 07:15:22;;;;;;;7.82;3.17;;;;;;;;;;4969410;28;20165;-77
2022/08/17 07:17:48;;;;;;;6.72;3.22;;;;;;;;;;4972269;28;20037;-77
2022/08/17 07:20:16;;;;;;;5.95;3.65;;;;;;;;;;4969081;28;20496;-77
2022/08/17 07:23:01;;;;;;;9.27;3.50;;;;;;;;;;4969866;28;20078;-77
2022/08/17 07:25:29;;;;;;;10.05;3.25;;;;;;;;;;4975250;28;20106;-78
2022/08/17 07:27:59;;;;;;;7.72;3.60;;;;;;;;;;4978315;28;20373;-77
2022/08/17 07:30:31;;;;;;;8.07;3.35;;;;;;;;;;4974041;28;20496;-77
2022/08/17 07:33:03;;;;;;;9.88;3.63;;;;;;;;;;4971970;28;20023;-78
2022/08/17 07:35:29;;;;;;;8.35;3.45;;;;;;;;;;4970341;28;20029;-77
2022/08/17 07:38:15;;;;;;;9.55;3.47;;;;;;;;;;4976847;28;20026;-78
2022/08/17 07:40:47;;;;;;;6.53;3.00;;;;;;;;;;4971649;28;20133;-79
2022/08/17 07:43:22;;;;;;;4.65;3.13;;;;;;;;;;4967095;28;20030;-76
2022/08/17 07:48:48;;;;;;;7.10;3.30;;;;;;;;;;4985500;28;20061;-77
2022/08/17 07:51:41;;;;;;;5.88;2.97;;;;;;;;;;4989450;28;20031;-77
2022/08/17 07:54:22;;;;;;;7.88;3.58;;;;;;;;;;4958691;28;20046;-77
2022/08/17 07:57:07;;;;;;;5.28;3.47;;;;;;;;;;4992578;28;20026;-77
2022/08/17 07:59:34;;;;;;;8.52;3.85;;;;;;;;;;4996756;28;20027;-76
2022/08/17 08:02:01;;;;;;;6.10;2.97;;;;;;;;;;5009975;28;20041;-76
2022/08/17 08:04:27;;;;;;;8.35;4.00;;;;;;;;;;5010283;28;20026;-75
2022/08/17 08:06:54;;;;;;;8.10;3.88;;;;;;;;;;5008621;28;20370;-78
2022/08/17 08:09:33;;;;;;;5.55;3.30;;;;;;;;;;4999955;28;20071;-78
2022/08/17 08:12:01;;;;;;;5.68;3.35;;;;;;;;;;4988554;28;20049;-75
2022/08/17 08:14:29;;;;;;;9.00;3.33;;;;;;;;;;4990067;28;20106;-76
2022/08/17 08:17:00;;;;;;;5.50;2.92;;;;;;;;;;4988045;28;20034;-76
2022/08/17 08:19:28;;;;;;;5.57;3.20;;;;;;;;;;4989632;28;20029;-76
2022/08/17 08:22:01;;;;;;;11.27;4.53;;;;;;;;;;4978887;28;20031;-76
2022/08/17 08:24:47;;;;;;;6.18;3.67;;;;;;;;;;4978611;28;20037;-77
2022/08/17 08:27:19;;;;;;;5.55;3.03;;;;;;;;;;4988836;28;20033;-76
2022/08/17 08:29:51;;;;;;;5.53;3.05;;;;;;;;;;4987309;28;20030;-76
2022/08/17 08:32:36;;;;;;;6.25;3.30;;;;;;;;;;4990094;28;20030;-78
2022/08/17 08:35:05;;;;;;;6.88;3.33;;;;;;;;;;5000746;28;20039;-76
2022/08/17 08:37:32;;;;;;;6.53;2.97;;;;;;;;;;4989509;28;20030;-77
2022/08/17 08:40:02;;;;;;;8.23;3.50;;;;;;;;;;4984999;28;20069;-79
2022/08/17 08:42:40;;;;;;;7.72;3.90;;;;;;;;;;4987348;28;20023;-77
2022/08/17 08:45:13;;;;;;;8.07;3.28;;;;;;;;;;4983269;28;20026;-78
2022/08/17 08:47:51;;;;;;;9.73;3.33;;;;;;;;;;4979100;28;20034;-76
2022/08/17 08:50:23;;;;;;;4.90;3.45;;;;;;;;;;4985444;28;20085;-78
2022/08/17 08:52:49;;;;;;;6.45;4.53;;;;;;;;;;4981664;28;20034;-79
2022/08/17 08:55:19;;;;;;;4.95;3.47;;;;;;;;;;4998872;28;20031;-79
2022/08/17 08:58:05;;;;;;;8.68;3.63;;;;;;;;;;4990906;28;20429;-77
2022/08/17 09:00:34;;;;;;;6.28;3.45;;;;;;;;;;4999271;28;20482;-78
2022/08/17 09:03:11;;;;;;;11.63;4.47;;;;;;;;;;4988746;28;20083;-77
2022/08/17 09:05:37;;;;;;;6.85;3.30;;;;;;;;;;4988556;28;20030;-79
2022/08/17 09:08:15;;;;;;;8.52;3.50;;;;;;;;;;4985115;28;20015;-79
2022/08/17 09:10:51;;;;;;;10.70;4.13;;;;;;;;;;4983763;28;20478;-77
2022/08/17 09:13:17;;;;;;;;;;;;;;;;;;4985155;28;20414;-76
2022/08/17 09:15:47;;;;;;;10.07;3.60;;;;;;;;;;4983878;28;19910;-77
2022/08/17 09:18:23;;;;;;;6.43;3.22;;;;;;;;;;4988541;28;20042;-78
2022/08/17 09:20:52;;;;;;;6.07;3.35;;;;;;;;;;4969372;28;20041;-78
2022/08/17 09:23:30;;;;;;;7.75;3.45;;;;;;;;;;4971656;28;20034;-79
2022/08/17 09:26:31;;;;;;;9.05;3.25;;;;;;;;;;4981493;28;20026;-79
2022/08/17 09:29:00;;;;;;;5.22;3.35;;;;;;;;;;4942694;29;20032;-77
2022/08/17 09:31:36;;;;;;;7.72;3.35;;;;;;;;;;4982713;28;20064;-78
2022/08/17 09:34:05;;;;;;;11.35;3.70;;;;;;;;;;4997336;28;20163;-77
2022/08/17 09:36:34;;;;;;;5.80;3.28;;;;;;;;;;4977700;28;20533;-78
2022/08/17 09:39:02;;;;;;;8.27;3.95;;;;;;;;;;4975344;28;20035;-78
2022/08/17 09:41:35;;;;;;;11.77;3.50;;;;;;;;;;4976165;28;20101;-78
2022/08/17 09:44:15;;;;;;;8.55;4.18;;;;;;;;;;4979330;28;20035;-77
2022/08/17 09:46:46;;;;;;;8.38;3.58;;;;;;;;;;4978622;28;20070;-79
2022/08/17 09:49:17;;;;;;;8.32;3.70;;;;;;;;;;4982662;28;20030;-79
2022/08/17 09:51:43;;;;;;;10.20;3.20;;;;;;;;;;4978761;28;20501;-77
2022/08/17 09:54:13;;;;;;;12.82;4.10;;;;;;;;;;4967986;28;20105;-77
2022/08/17 09:56:44;;;;;;;8.13;3.65;;;;;;;;;;4972016;28;20065;-78
2022/08/17 09:59:26;;;;;;;7.45;3.80;;;;;;;;;;4986542;28;20045;-78
2022/08/17 10:01:55;;;;;;;6.57;3.40;;;;;;;;;;4979144;28;20022;-77
2022/08/17 10:04:28;;;;;;;8.05;3.88;;;;;;;;;;4980397;28;20054;-76
2022/08/17 10:07:00;;;;;;;9.23;3.65;;;;;;;;;;4983932;28;20090;-76
2022/08/17 10:09:29;;;;;;;6.90;3.33;;;;;;;;;;4988581;28;20034;-76
2022/08/17 10:12:14;;;;;;;8.98;3.17;;;;;;;;;;4987765;28;20045;-79
2022/08/17 10:14:47;;;;;;;9.55;3.53;;;;;;;;;;4985002;28;20037;-76
2022/08/17 10:17:27;;;;;;;7.00;3.50;;;;;;;;;;4986733;28;20022;-78
2022/08/17 10:20:00;;;;;;;6.88;3.45;;;;;;;;;;4987995;28;20485;-78
2022/08/17 10:28:07;;;;;;;8.25;3.55;;;;;;;;;;4979928;28;20250;-78
2022/08/17 10:30:37;;;;;;;5.60;3.28;;;;;;;;;;4966501;28;20521;-78
2022/08/17 10:33:14;;;;;;;8.13;3.50;;;;;;;;;;4969431;28;20122;-78
2022/08/17 10:35:43;;;;;;;7.72;3.45;;;;;;;;;;4966643;28;20390;-77
2022/08/17 10:38:27;;;;;;;5.25;3.60;;;;;;;;;;4979720;28;20371;-78
2022/08/17 10:40:57;;;;;;;7.72;3.40;;;;;;;;;;4962930;28;20193;-77
2022/08/17 10:43:43;;;;;;;8.57;3.65;;;;;;;;;;4964629;28;20030;-79
2022/08/17 10:46:19;;;;;;;7.10;3.97;;;;;;;;;;4965451;28;20465;-78
2022/08/17 10:49:09;;;;;;;8.65;3.33;;;;;;;;;;4966801;28;20026;-78
2022/08/17 10:51:37;;;;;;;8.48;3.85;;;;;;;;;;4986477;28;20031;-77
2022/08/17 10:54:04;;;;;;;7.50;3.38;;;;;;;;;;4987227;28;20031;-77
2022/08/17 10:56:45;;;;;;;8.77;3.70;;;;;;;;;;4986267;28;20027;-80
2022/08/17 10:59:31;;;;;;;6.57;2.78;;;;;;;;;;4983682;28;20390;-76
2022/08/17 11:02:17;;;;;;;7.78;3.88;;;;;;;;;;4986416;28;20015;-76
2022/08/17 11:04:55;;;;;;;10.00;3.50;;;;;;;;;;4973931;28;20144;-77
2022/08/17 11:07:37;;;;;;;6.60;3.70;;;;;;;;;;4978434;28;20018;-76
2022/08/17 11:10:18;;;;;;;8.98;3.58;;;;;;;;;;4977433;28;20073;-79
2022/08/17 11:12:50;;;;;;;11.32;3.40;;;;;;;;;;4981082;28;20081;-81
2022/08/17 11:15:16;;;;;;;6.97;3.45;;;;;;;;;;4978347;28;20421;-79
2022/08/17 11:18:01;;;;;;;8.57;3.30;;;;;;;;;;4982903;28;20023;-79
2022/08/17 11:20:27;;;;;;;7.90;3.13;;;;;;;;;;4982417;28;20027;-78
2022/08/17 11:23:08;;;;;;;9.70;3.17;;;;;;;;;;4984571;28;20505;-79
2022/08/17 11:25:39;;;;;;;9.02;3.22;;;;;;;;;;4981257;28;20033;-77
2022/08/17 11:28:07;;;;;;;3.78;3.00;;;;;;;;;;4979134;28;20374;-75
2022/08/17 11:30:43;;;;;;;5.25;3.40;;;;;;;;;;4986285;28;20023;-78
2022/08/17 11:33:43;;;;;;;9.65;3.30;;;;;;;;;;4985109;28;20035;-80
2022/08/17 11:36:18;;;;;;;5.40;3.10;;;;;;;;;;4939074;28;20062;-80
2022/08/17 11:39:03;;;;;;;17.58;3.92;;;;;;;;;;4977556;28;20031;-78
2022/08/17 11:41:38;;;;;;;8.93;3.35;;;;;;;;;;4977215;28;20401;-80
2022/08/17 11:44:19;;;;;;;8.18;3.30;;;;;;;;;;4973529;28;20035;-81
2022/08/17 11:52:58;;;;;;;5.18;2.80;;;;;;;;;;4971422;28;20030;-83
2022/08/17 11:55:27;;;;;;;6.22;3.05;;;;;;;;;;4983130;28;20038;-83
2022/08/17 11:57:58;;;;;;;8.60;3.80;;;;;;;;;;4986142;28;20023;-78
2022/08/17 12:00:50;;;;;;;6.43;2.65;;;;;;;;;;5001733;28;20141;-77
2022/08/17 12:03:42;;;;;;;4.93;3.15;;;;;;;;;;4986600;28;20022;-78
2022/08/17 12:06:26;;;;;;;6.75;3.15;;;;;;;;;;4981477;28;20030;-78
2022/08/17 12:09:13;;;;;;;4.43;2.80;;;;;;;;;;4984314;28;20027;-78
2022/08/17 12:11:44;;;;;;;6.10;3.15;;;;;;;;;;4980322;28;20081;-76
2022/08/17 12:14:15;;;;;;;5.80;3.40;;;;;;;;;;4979730;28;20119;-77
2022/08/17 12:16:43;;;;;;;5.68;2.80;;;;;;;;;;4991375;28;20031;-77
2022/08/17 12:19:18;;;;;;;5.32;3.15;;;;;;;;;;5005876;28;20133;-79
2022/08/17 12:21:45;;;;;;;;;;;;;;;;;;4996867;28;20527;-77
2022/08/17 12:24:13;;;;;;;4.35;2.40;;;;;;;;;;4984679;28;19973;-77
2022/08/17 12:26:42;;;;;;;4.53;2.78;;;;;;;;;;4986834;28;20034;-80
2022/08/17 12:29:16;;;;;;;3.50;2.58;;;;;;;;;;4986229;28;20022;-78
2022/08/17 12:31:44;;;;;;;3.10;2.50;;;;;;;;;;4981323;28;20058;-77
2022/08/17 12:34:34;;;;;;;2.60;2.40;;;;;;;;;;4986863;28;20044;-80
2022/08/17 12:37:02;;;;;;;5.20;2.90;;;;;;;;;;4971968;28;20034;-79
2022/08/17 12:39:29;;;;;;;5.80;2.80;;;;;;;;;;4970296;28;20134;-85
2022/08/17 12:41:57;;;;;;;4.65;2.50;;;;;;;;;;4974232;28;20023;-82
2022/08/17 12:44:28;;;;;;;6.60;2.58;;;;;;;;;;4967057;28;20114;-84
2022/08/17 12:46:54;;;;;;;4.95;2.70;;;;;;;;;;4966652;28;20098;-82
2022/08/17 12:49:28;;;;;;;3.10;2.20;;;;;;;;;;4970314;28;20031;-87
2022/08/17 12:52:11;;;;;;;4.97;2.88;;;;;;;;;;4965941;28;20030;-80
2022/08/17 12:54:41;;;;;;;6.13;3.60;;;;;;;;;;4968172;28;20038;-81
2022/08/17 12:57:13;;;;;;;5.35;2.55;;;;;;;;;;4966667;28;20035;-81
2022/08/17 12:59:40;;;;;;;4.40;2.70;;;;;;;;;;4966671;28;20046;-82
2022/08/17 13:02:08;;;;;;;6.35;2.50;;;;;;;;;;4966524;28;20378;-88
2022/08/17 13:04:38;;;;;;;3.50;2.60;;;;;;;;;;4963596;28;21276;-82
2022/08/17 13:07:05;;;;;;;4.78;2.55;;;;;;;;;;4966067;28;20039;-80
2022/08/17 13:09:31;;;;;;;3.88;2.50;;;;;;;;;;4965483;28;20106;-82
2022/08/17 13:12:01;;;;;;;7.15;3.03;;;;;;;;;;4963482;28;20043;-80
2022/08/17 13:14:28;;;;;;;4.93;2.33;;;;;;;;;;4981490;28;20065;-84
2022/08/17 13:16:58;;;;;;;4.30;2.25;;;;;;;;;;4969195;28;20493;-84
2022/08/17 13:19:25;;;;;;;6.35;2.65;;;;;;;;;;4974055;28;20375;-87
2022/08/17 13:21:53;;;;;;;7.57;3.75;;;;;;;;;;4970059;28;20030;-83
2022/08/17 13:24:27;;;;;;;4.32;2.72;;;;;;;;;;4968485;28;20212;-83
2022/08/17 13:27:05;;;;;;;5.70;2.58;;;;;;;;;;4968560;28;20043;-85
2022/08/17 13:29:37;;;;;;;6.90;2.72;;;;;;;;;;4963702;28;20033;-85
2022/08/17 13:32:05;;;;;;;4.32;2.53;;;;;;;;;;4966429;28;20518;-79
2022/08/17 13:34:38;;;;;;;4.63;2.50;;;;;;;;;;4966403;28;20078;-83
2022/08/17 13:37:27;;;;;;;3.70;2.40;;;;;;;;;;4966530;28;20034;-82
2022/08/17 13:40:13;;;;;;;3.63;2.47;;;;;;;;;;4964024;28;20413;-80
2022/08/17 13:42:39;;;;;;;6.10;2.55;;;;;;;;;;4953566;28;20039;-84
2022/08/17 13:45:24;;;;;;;6.43;2.72;;;;;;;;;;4967525;28;20035;-80
2022/08/17 13:48:03;;;;;;;4.00;2.47;;;;;;;;;;4965498;28;20062;-84
2022/08/17 13:50:29;;;;;;;2.90;2.33;;;;;;;;;;4964887;28;20030;-80
2022/08/17 13:52:57;;;;;;;3.85;3.13;;;;;;;;;;4985429;28;20055;-80
2022/08/17 13:55:24;;;;;;;5.25;2.60;;;;;;;;;;4967230;28;20030;-85
2022/08/17 13:57:51;;;;;;;4.57;2.80;;;;;;;;;;4970328;28;20073;-83
2022/08/17 14:00:17;;;;;;;5.70;2.72;;;;;;;;;;4976182;28;20042;-79
2022/08/17 14:02:44;;;;;;;5.72;2.70;;;;;;;;;;4976012;28;20027;-82
2022/08/17 14:05:10;;;;;;;5.53;2.58;;;;;;;;;;4984020;28;20049;-81
2022/08/17 14:07:37;;;;;;;3.50;2.75;;;;;;;;;;4988902;28;20039;-79
2022/08/17 14:10:14;;;;;;;3.90;2.40;;;;;;;;;;4984421;28;20030;-80
2022/08/17 14:12:42;;;;;;;5.50;3.22;;;;;;;;;;4997669;28;20050;-77
2022/08/17 14:15:09;;;;;;;5.13;3.00;;;;;;;;;;4980001;28;20034;-79
2022/08/17 14:17:35;;;;;;;5.10;2.35;;;;;;;;;;4998773;28;20707;-80
2022/08/17 14:20:01;;;;;;;5.72;2.45;;;;;;;;;;4979548;28;20054;-84
2022/08/17 14:22:29;;;;;;;4.25;2.60;;;;;;;;;;4980948;28;20026;-79
2022/08/17 14:24:56;;;;;;;4.43;2.50;;;;;;;;;;4981005;28;20022;-83
2022/08/17 14:27:26;;;;;;;3.00;2.70;;;;;;;;;;4976914;28;20711;-79
2022/08/17 14:29:53;;;;;;;4.05;2.67;;;;;;;;;;4979551;28;20054;-81
2022/08/17 14:32:22;;;;;;;5.07;2.90;;;;;;;;;;4989625;28;20039;-83
2022/08/17 14:34:48;;;;;;;4.28;2.55;;;;;;;;;;4979064;28;20046;-83
2022/08/17 14:37:15;;;;;;;4.80;2.63;;;;;;;;;;4975811;28;20027;-84
2022/08/17 14:39:42;;;;;;;6.07;2.65;;;;;;;;;;4975371;28;20027;-79
2022/08/17 14:42:10;;;;;;;5.35;2.53;;;;;;;;;;4972090;28;20405;-81
2022/08/17 14:44:37;;;;;;;4.00;2.78;;;;;;;;;;4974587;28;20034;-83
2022/08/17 14:47:03;;;;;;;3.90;2.33;;;;;;;;;;4974953;28;20441;-82
2022/08/17 14:49:30;;;;;;;5.80;3.03;;;;;;;;;;4987519;28;20031;-79
2022/08/17 14:51:57;;;;;;;4.60;2.85;;;;;;;;;;4973117;28;20118;-83
2022/08/17 14:54:23;;;;;;;6.95;2.22;;;;;;;;;;4970473;28;20058;-79
2022/08/17 14:56:49;;;;;;;3.63;2.40;;;;;;;;;;4971664;28;20382;-83
2022/08/17 14:59:16;;;;;;;3.10;2.30;;;;;;;;;;4973923;28;20065;-81
2022/08/17 15:01:46;;;;;;;2.40;2.20;;;;;;;;;;4971139;28;20545;-84
2022/08/17 15:04:15;;;;;;;5.18;2.85;;;;;;;;;;4973224;28;20058;-82
2022/08/17 15:06:42;;;;;;;6.35;2.75;;;;;;;;;;4973264;28;20039;-81
2022/08/17 15:09:09;;;;;;;3.72;2.13;;;;;;;;;;5004481;28;21242;-82
2022/08/17 15:11:35;;;;;;;3.15;2.20;;;;;;;;;;4976120;28;20058;-82
2022/08/17 15:14:01;;;;;;;4.85;2.47;;;;;;;;;;4970391;28;20035;-82
2022/08/17 15:16:27;;;;;;;4.85;2.35;;;;;;;;;;4973616;28;20421;-81
2022/08/17 15:18:54;;;;;;;3.50;2.33;;;;;;;;;;4970335;28;20508;-82
2022/08/17 15:21:20;;;;;;;4.03;2.33;;;;;;;;;;4967130;28;20030;-79
2022/08/17 15:23:46;;;;;;;4.30;2.20;;;;;;;;;;4962858;28;20034;-79
2022/08/17 15:26:12;;;;;;;3.20;2.50;;;;;;;;;;4964929;28;20946;-81
2022/08/17 15:28:38;;;;;;;4.45;2.30;;;;;;;;;;4969565;28;20110;-80
2022/08/17 15:31:05;;;;;;;4.47;2.38;;;;;;;;;;4971781;28;20116;-80
2022/08/17 15:33:32;;;;;;;3.53;2.38;;;;;;;;;;4968533;28;20026;-79